createdAt,value
2018-08-22T00:01:30.820Z,59.44
2018-08-22T00:06:34.206Z,59.80
2018-08-22T00:11:37.534Z,59.51
2018-08-22T00:16:40.904Z,59.43
2018-08-22T00:21:44.193Z,58.87
2018-08-22T00:26:47.541Z,58.63
2018-08-22T00:31:50.846Z,58.20
2018-08-22T00:36:54.132Z,58.17
2018-08-22T00:41:57.521Z,57.74
2018-08-22T00:47:00.809Z,57.34
2018-08-22T00:52:04.184Z,57.13
2018-08-22T00:57:07.464Z,57.17
2018-08-22T01:02:10.773Z,57.54
2018-08-22T01:07:14.147Z,57.30
2018-08-22T01:12:17.477Z,56.85
2018-08-22T01:17:20.841Z,57.56
2018-08-22T01:22:24.342Z,57.34
2018-08-22T01:27:27.745Z,57.22
2018-08-22T01:32:31.064Z,57.21
2018-08-22T01:37:34.572Z,56.77
2018-08-22T01:42:37.925Z,56.73
2018-08-22T01:47:41.197Z,56.14
2018-08-22T01:52:44.634Z,55.93
2018-08-22T01:57:47.925Z,55.93
2018-08-22T02:02:51.358Z,55.73
2018-08-22T02:07:54.729Z,54.86
2018-08-22T02:12:58.225Z,55.35
2018-08-22T02:18:01.748Z,55.45
2018-08-22T02:23:05.219Z,55.06
2018-08-22T02:28:08.590Z,55.66
2018-08-22T02:33:12.923Z,55.87
2018-08-22T02:38:22.165Z,56.02
2018-08-22T02:43:25.877Z,55.79
2018-08-22T02:48:29.238Z,55.70
2018-08-22T02:53:32.917Z,56.59
2018-08-22T02:58:36.312Z,56.46
2018-08-22T03:03:39.734Z,56.92
2018-08-22T03:08:43.236Z,56.18
2018-08-22T03:13:46.600Z,56.25
2018-08-22T03:18:50.033Z,56.92
2018-08-22T03:23:53.446Z,56.98
2018-08-22T03:28:57.028Z,57.11
2018-08-22T03:34:00.389Z,56.99
2018-08-22T03:39:05.108Z,56.56
2018-08-22T03:44:08.466Z,57.09
2018-08-22T03:49:11.744Z,56.88
2018-08-22T03:54:15.032Z,56.63
2018-08-22T03:59:18.341Z,57.35
2018-08-22T04:04:21.865Z,57.31
2018-08-22T04:09:26.478Z,57.30
2018-08-22T04:14:29.835Z,57.54
2018-08-22T04:19:37.520Z,57.40
2018-08-22T04:24:40.923Z,57.56
2018-08-22T04:29:44.378Z,57.49
2018-08-22T04:34:48.317Z,57.44
2018-08-22T04:39:51.596Z,57.82
2018-08-22T04:44:54.887Z,57.37
2018-08-22T04:49:58.472Z,56.94
2018-08-22T04:55:01.806Z,56.60
2018-08-22T05:00:06.616Z,56.75
2018-08-22T05:05:10.800Z,56.54
2018-08-22T05:10:14.192Z,56.82
2018-08-22T05:15:17.485Z,56.53
2018-08-22T05:20:20.893Z,56.58
2018-08-22T05:25:27.093Z,55.56
2018-08-22T05:30:33.009Z,55.30
2018-08-22T05:35:36.777Z,54.76
2018-08-22T05:40:40.126Z,55.03
2018-08-22T05:45:43.512Z,54.24
2018-08-22T05:50:46.880Z,54.35
2018-08-22T05:55:50.265Z,54.87
2018-08-22T06:00:53.489Z,54.03
2018-08-22T06:05:56.819Z,54.07
2018-08-22T06:11:00.141Z,53.62
2018-08-22T06:16:03.469Z,53.59
2018-08-22T06:21:06.876Z,52.58
2018-08-22T06:26:10.208Z,52.24
2018-08-22T06:31:13.554Z,52.30
2018-08-22T06:36:16.944Z,51.50
2018-08-22T06:41:20.204Z,51.26
2018-08-22T06:46:23.513Z,51.73
2018-08-22T06:51:26.844Z,50.52
2018-08-22T06:56:30.276Z,50.03
2018-08-22T07:01:33.614Z,49.66
2018-08-22T07:06:36.930Z,49.30
2018-08-22T07:11:40.264Z,49.23
2018-08-22T07:16:43.677Z,48.92
2018-08-22T07:21:46.929Z,47.84
2018-08-22T07:26:50.302Z,47.31
2018-08-22T07:31:53.657Z,46.31
2018-08-22T07:36:57.025Z,46.00
2018-08-22T07:42:00.380Z,46.09
2018-08-22T07:47:03.993Z,45.29
2018-08-22T07:52:07.521Z,45.30
2018-08-22T07:57:11.254Z,44.92
2018-08-22T08:02:14.688Z,44.37
2018-08-22T08:07:18.105Z,43.96
2018-08-22T08:12:25.953Z,43.42
2018-08-22T08:17:29.246Z,42.76
2018-08-22T08:22:32.574Z,41.86
2018-08-22T08:27:35.938Z,41.55
2018-08-22T08:32:39.312Z,40.61
2018-08-22T08:37:42.701Z,40.76
2018-08-22T08:42:46.012Z,40.23
2018-08-22T08:47:49.419Z,40.21
2018-08-22T08:52:52.761Z,39.78
2018-08-22T08:57:56.133Z,38.88
2018-08-22T09:02:59.473Z,39.69
2018-08-22T09:08:02.837Z,39.45
2018-08-22T09:13:09.035Z,39.27
2018-08-22T09:18:12.386Z,38.74
2018-08-22T09:23:15.769Z,38.97
2018-08-22T09:28:19.212Z,38.35
2018-08-22T09:33:22.576Z,38.41
2018-08-22T09:38:25.937Z,37.96
2018-08-22T09:43:29.315Z,38.09
2018-08-22T09:48:32.661Z,37.93
2018-08-22T09:53:35.985Z,37.78
2018-08-22T09:58:39.321Z,36.98
2018-08-22T10:03:55.698Z,37.24
2018-08-22T10:09:04.141Z,36.56
2018-08-22T10:14:07.561Z,36.10
2018-08-22T10:19:11.055Z,36.34
2018-08-22T10:24:14.627Z,35.87
2018-08-22T10:29:17.984Z,35.76
2018-08-22T10:34:21.356Z,35.31
2018-08-22T10:39:24.719Z,35.40
2018-08-22T10:44:28.105Z,34.68
2018-08-22T10:49:31.713Z,35.43
2018-08-22T10:54:35.041Z,35.25
2018-08-22T10:59:38.913Z,34.55
2018-08-22T11:04:43.043Z,34.71
2018-08-22T11:09:47.530Z,34.68
2018-08-22T11:14:51.697Z,33.53
2018-08-22T11:19:55.727Z,33.08
2018-08-22T11:25:16.090Z,32.90
2018-08-22T11:30:36.879Z,32.80
2018-08-22T11:35:38.831Z,33.34
2018-08-22T11:40:43.074Z,33.43
2018-08-22T11:45:46.440Z,32.53
2018-08-22T11:50:49.923Z,33.61
2018-08-22T11:55:53.424Z,33.14
2018-08-22T12:00:56.739Z,32.40
2018-08-22T12:06:00.195Z,32.59
2018-08-22T12:11:03.672Z,32.70
2018-08-22T12:16:07.019Z,33.12
2018-08-22T12:21:10.390Z,32.18
2018-08-22T12:26:13.722Z,32.30
2018-08-22T12:31:17.067Z,32.88
2018-08-22T12:36:20.428Z,32.24
2018-08-22T12:41:24.146Z,32.70
2018-08-22T12:46:27.451Z,32.47
2018-08-22T12:51:30.840Z,31.63
2018-08-22T12:56:34.156Z,31.75
2018-08-22T13:01:37.528Z,32.14
2018-08-22T13:06:40.938Z,32.08
2018-08-22T13:11:44.305Z,30.95
2018-08-22T13:16:47.676Z,30.73
2018-08-22T13:21:51.023Z,31.18
2018-08-22T13:26:54.351Z,31.25
2018-08-22T13:31:57.743Z,31.42
2018-08-22T13:37:01.067Z,30.85
2018-08-22T13:42:04.503Z,30.01
2018-08-22T13:47:07.850Z,30.20
2018-08-22T13:52:11.299Z,30.37
2018-08-22T13:57:14.668Z,31.14
2018-08-22T14:02:18.107Z,30.62
2018-08-22T14:07:21.718Z,31.55
2018-08-22T14:12:25.113Z,31.57
2018-08-22T14:17:28.489Z,30.82
2018-08-22T14:22:31.878Z,31.77
2018-08-22T14:27:35.192Z,31.25
2018-08-22T14:32:38.553Z,31.06
2018-08-22T14:37:41.924Z,29.69
2018-08-22T14:42:45.341Z,30.07
2018-08-22T14:47:48.687Z,29.57
2018-08-22T14:52:52.074Z,29.43
2018-08-22T14:57:55.509Z,29.99
2018-08-22T15:02:59.070Z,29.30
2018-08-22T15:08:02.215Z,29.38
2018-08-22T15:13:05.841Z,29.66
2018-08-22T15:18:09.249Z,29.59
2018-08-22T15:23:12.661Z,30.07
2018-08-22T15:28:16.156Z,30.26
2018-08-22T15:33:19.569Z,30.02
2018-08-22T15:38:22.942Z,29.63
2018-08-22T15:43:26.287Z,29.39
2018-08-22T15:48:29.682Z,29.77
2018-08-22T15:53:33.055Z,30.19
2018-08-22T15:58:36.401Z,31.03
2018-08-22T16:03:39.805Z,31.51
2018-08-22T16:08:43.005Z,31.55
2018-08-22T16:13:46.370Z,32.56
2018-08-22T16:18:49.785Z,31.98
2018-08-22T16:23:53.109Z,31.67
2018-08-22T16:28:58.214Z,31.10
2018-08-22T16:34:01.585Z,30.76
2018-08-22T16:39:06.437Z,30.50
2018-08-22T16:44:09.970Z,30.64
2018-08-22T16:49:13.431Z,30.48
2018-08-22T16:54:17.106Z,30.75
2018-08-22T16:59:21.260Z,31.43
2018-08-22T17:04:24.614Z,31.67
2018-08-22T17:09:27.963Z,31.77
2018-08-22T17:14:31.370Z,32.22
2018-08-22T17:19:34.701Z,32.10
2018-08-22T17:24:38.089Z,32.44
2018-08-22T17:29:42.078Z,32.44
2018-08-22T17:34:45.692Z,33.14
2018-08-22T17:39:49.148Z,32.79
2018-08-22T17:44:52.537Z,34.78
2018-08-22T17:50:07.808Z,34.79
2018-08-22T17:55:11.228Z,34.78
2018-08-22T18:00:14.769Z,34.78
2018-08-22T18:05:18.343Z,35.30
2018-08-22T18:10:21.937Z,35.18
2018-08-22T18:15:25.305Z,35.41
2018-08-22T18:20:28.636Z,35.71
2018-08-22T18:25:31.978Z,36.21
2018-08-22T18:30:35.575Z,36.86
2018-08-22T18:35:43.294Z,37.19
2018-08-22T18:41:02.389Z,37.32
2018-08-22T18:46:06.973Z,40.17
2018-08-22T18:51:10.187Z,40.27
2018-08-22T18:56:15.856Z,40.69
2018-08-22T19:01:20.381Z,41.37
2018-08-22T19:06:24.937Z,42.62
2018-08-22T19:11:28.957Z,43.68
2018-08-22T19:16:32.360Z,43.90
2018-08-22T19:21:35.506Z,44.94
2018-08-22T19:26:38.669Z,45.30
2018-08-22T19:31:47.286Z,46.27
2018-08-22T19:36:50.323Z,46.42
2018-08-22T19:41:53.593Z,46.65
2018-08-22T19:46:56.671Z,47.12
2018-08-22T19:51:59.876Z,47.62
2018-08-22T19:57:02.924Z,47.30
2018-08-22T20:02:06.221Z,46.78
2018-08-22T20:07:09.238Z,46.85
2018-08-22T20:12:12.794Z,46.81
2018-08-22T20:17:21.461Z,47.43
2018-08-22T20:22:30.877Z,48.11
2018-08-22T20:27:34.050Z,48.33
2018-08-22T20:32:37.122Z,49.40
2018-08-22T20:37:40.327Z,49.88
2018-08-22T20:42:43.836Z,51.94
2018-08-22T20:47:52.830Z,52.17
2018-08-22T20:53:04.006Z,51.85
2018-08-22T20:58:08.765Z,51.13
2018-08-22T21:03:11.770Z,51.33
2018-08-22T21:08:14.805Z,51.01
2018-08-22T21:13:23.461Z,50.23
2018-08-22T21:18:26.822Z,50.89
2018-08-22T21:23:29.814Z,51.23
2018-08-22T21:28:37.509Z,51.37
2018-08-22T21:33:43.440Z,52.63
2018-08-22T21:38:46.451Z,53.05
2018-08-22T21:43:49.548Z,53.36
2018-08-22T21:48:52.905Z,53.92
2018-08-22T21:53:56.032Z,54.52
2018-08-22T21:58:59.054Z,55.61
2018-08-22T22:04:02.087Z,55.92
2018-08-22T22:09:05.989Z,55.94
2018-08-22T22:14:25.531Z,56.76
2018-08-22T22:19:31.051Z,56.99
2018-08-22T22:24:44.872Z,57.22
2018-08-22T22:29:48.014Z,57.08
2018-08-22T22:34:51.095Z,57.66
2018-08-22T22:39:54.098Z,57.53
2018-08-22T22:44:58.876Z,58.34
2018-08-22T22:50:02.765Z,58.67
2018-08-22T22:55:07.303Z,58.30
2018-08-22T23:00:13.110Z,58.89
2018-08-22T23:05:16.113Z,58.19
2018-08-22T23:10:19.117Z,58.54
2018-08-22T23:15:26.468Z,57.93
2018-08-22T23:20:50.018Z,58.52
2018-08-22T23:25:53.530Z,58.47
2018-08-22T23:30:56.507Z,58.35
2018-08-22T23:35:59.494Z,57.90
2018-08-22T23:41:02.937Z,58.27
2018-08-22T23:46:07.658Z,58.14
2018-08-22T23:51:11.821Z,58.52
2018-08-22T23:56:24.049Z,58.67
